sensor_id;sensor_type;location;lat;lon;timestamp;pressure;altitude;pressure_sealevel;temperature;humidity
54038;BME280;39954;48.844;9.726;2023-03-15T00:00:10;95525.13;;;-0.38;100.00
54038;BME280;39954;48.844;9.726;2023-03-15T00:01:16;95530.16;;;-0.35;100.00
54038;BME280;39954;48.844;9.726;2023-03-15T00:02:21;95538.56;;;-0.31;100.00
54038;BME280;39954;48.844;9.726;2023-03-15T00:03:24;95537.81;;;-0.35;100.00
54038;BME280;39954;48.844;9.726;2023-03-15T00:04:29;95535.25;;;-0.35;100.00
54038;BME280;39954;48.844;9.726;2023-03-15T00:05:33;95542.00;;;-0.31;100.00
54038;BME280;39954;48.844;9.726;2023-03-15T00:06:38;95541.09;;;-0.30;100.00
54038;BME280;39954;48.844;9.726;2023-03-15T00:07:40;95552.97;;;-0.27;100.00
54038;BME280;39954;48.844;9.726;2023-03-15T00:08:44;95554.84;;;-0.35;100.00
54038;BME280;39954;48.844;9.726;2023-03-15T00:09:48;95552.31;;;-0.37;100.00
54038;BME280;39954;48.844;9.726;2023-03-15T00:10:53;95557.44;;;-0.37;100.00
54038;BME280;39954;48.844;9.726;2023-03-15T00:11:55;95551.56;;;-0.40;100.00
54038;BME280;39954;48.844;9.726;2023-03-15T00:13:00;95558.34;;;-0.39;100.00
54038;BME280;39954;48.844;9.726;2023-03-15T00:14:02;95548.09;;;-0.38;100.00
54038;BME280;39954;48.844;9.726;2023-03-15T00:15:12;95559.97;;;-0.35;100.00
54038;BME280;39954;48.844;9.726;2023-03-15T00:16:15;95569.44;;;-0.40;100.00
54038;BME280;39954;48.844;9.726;2023-03-15T00:17:19;95569.59;;;-0.48;100.00
54038;BME280;39954;48.844;9.726;2023-03-15T00:18:23;95573.72;;;-0.42;100.00
54038;BME280;39954;48.844;9.726;2023-03-15T00:19:28;95574.59;;;-0.42;100.00
54038;BME280;39954;48.844;9.726;2023-03-15T00:20:31;95578.88;;;-0.44;100.00
54038;BME280;39954;48.844;9.726;2023-03-15T00:21:36;95581.44;;;-0.44;100.00
54038;BME280;39954;48.844;9.726;2023-03-15T00:22:38;95584.75;;;-0.40;100.00
54038;BME280;39954;48.844;9.726;2023-03-15T00:23:42;95584.00;;;-0.44;100.00
54038;BME280;39954;48.844;9.726;2023-03-15T00:24:45;95580.47;;;-0.40;100.00
54038;BME280;39954;48.844;9.726;2023-03-15T00:25:51;95589.84;;;-0.39;100.00
54038;BME280;39954;48.844;9.726;2023-03-15T00:26:53;95587.41;;;-0.45;100.00
54038;BME280;39954;48.844;9.726;2023-03-15T00:27:57;95594.28;;;-0.49;100.00
54038;BME280;39954;48.844;9.726;2023-03-15T00:28:59;95592.63;;;-0.50;100.00
54038;BME280;39954;48.844;9.726;2023-03-15T00:30:05;95589.22;;;-0.50;100.00
54038;BME280;39954;48.844;9.726;2023-03-15T00:31:13;95601.31;;;-0.58;100.00
54038;BME280;39954;48.844;9.726;2023-03-15T00:32:18;95605.53;;;-0.57;100.00
54038;BME280;39954;48.844;9.726;2023-03-15T00:33:20;95596.03;;;-0.51;100.00
54038;BME280;39954;48.844;9.726;2023-03-15T00:34:25;95607.09;;;-0.50;100.00
54038;BME280;39954;48.844;9.726;2023-03-15T00:35:27;95603.00;;;-0.59;100.00
54038;BME280;39954;48.844;9.726;2023-03-15T00:36:32;95607.28;;;-0.59;100.00
54038;BME280;39954;48.844;9.726;2023-03-15T00:37:34;95606.63;;;-0.69;100.00
54038;BME280;39954;48.844;9.726;2023-03-15T00:38:40;95618.56;;;-0.70;100.00
54038;BME280;39954;48.844;9.726;2023-03-15T00:39:44;95616.72;;;-0.64;100.00
54038;BME280;39954;48.844;9.726;2023-03-15T00:40:49;95621.81;;;-0.61;100.00
54038;BME280;39954;48.844;9.726;2023-03-15T00:41:51;95618.31;;;-0.59;100.00
54038;BME280;39954;48.844;9.726;2023-03-15T00:42:57;95629.34;;;-0.57;100.00
54038;BME280;39954;48.844;9.726;2023-03-15T00:43:59;95632.69;;;-0.53;100.00
54038;BME280;39954;48.844;9.726;2023-03-15T00:45:06;95634.44;;;-0.55;100.00
54038;BME280;39954;48.844;9.726;2023-03-15T00:46:11;95637.00;;;-0.57;100.00
54038;BME280;39954;48.844;9.726;2023-03-15T00:47:16;95639.69;;;-0.64;100.00
54038;BME280;39954;48.844;9.726;2023-03-15T00:48:18;95644.72;;;-0.58;100.00
54038;BME280;39954;48.844;9.726;2023-03-15T00:49:23;95652.44;;;-0.61;100.00
54038;BME280;39954;48.844;9.726;2023-03-15T00:50:25;95647.31;;;-0.61;100.00
54038;BME280;39954;48.844;9.726;2023-03-15T00:51:30;95649.81;;;-0.58;100.00
54038;BME280;39954;48.844;9.726;2023-03-15T00:52:33;95653.97;;;-0.54;100.00
54038;BME280;39954;48.844;9.726;2023-03-15T00:53:41;95660.81;;;-0.56;100.00
54038;BME280;39954;48.844;9.726;2023-03-15T00:54:50;95657.34;;;-0.54;100.00
54038;BME280;39954;48.844;9.726;2023-03-15T00:55:53;95654.88;;;-0.57;100.00
54038;BME280;39954;48.844;9.726;2023-03-15T00:56:57;95662.53;;;-0.57;100.00
54038;BME280;39954;48.844;9.726;2023-03-15T00:57:59;95657.47;;;-0.58;100.00
54038;BME280;39954;48.844;9.726;2023-03-15T00:59:04;95663.50;;;-0.62;100.00
54038;BME280;39954;48.844;9.726;2023-03-15T01:00:08;95665.97;;;-0.59;100.00
54038;BME280;39954;48.844;9.726;2023-03-15T01:01:20;95668.59;;;-0.62;100.00
54038;BME280;39954;48.844;9.726;2023-03-15T01:02:22;95670.31;;;-0.64;100.00
54038;BME280;39954;48.844;9.726;2023-03-15T01:03:27;95666.94;;;-0.63;100.00
54038;BME280;39954;48.844;9.726;2023-03-15T01:04:30;95666.97;;;-0.66;100.00
54038;BME280;39954;48.844;9.726;2023-03-15T01:05:35;95674.59;;;-0.63;100.00
54038;BME280;39954;48.844;9.726;2023-03-15T01:06:37;95677.16;;;-0.65;100.00
54038;BME280;39954;48.844;9.726;2023-03-15T01:07:42;95682.38;;;-0.70;100.00
54038;BME280;39954;48.844;9.726;2023-03-15T01:08:46;95684.16;;;-0.75;100.00
54038;BME280;39954;48.844;9.726;2023-03-15T01:09:52;95685.88;;;-0.77;100.00
54038;BME280;39954;48.844;9.726;2023-03-15T01:10:54;95683.22;;;-0.71;100.00
54038;BME280;39954;48.844;9.726;2023-03-15T01:11:58;95689.56;;;-0.92;100.00
54038;BME280;39954;48.844;9.726;2023-03-15T01:13:00;95692.91;;;-0.88;100.00
54038;BME280;39954;48.844;9.726;2023-03-15T01:14:05;95698.06;;;-0.91;100.00
54038;BME280;39954;48.844;9.726;2023-03-15T01:15:11;95695.56;;;-0.94;100.00
54038;BME280;39954;48.844;9.726;2023-03-15T01:16:19;95700.59;;;-0.89;100.00
54038;BME280;39954;48.844;9.726;2023-03-15T01:17:21;95710.03;;;-0.95;100.00
54038;BME280;39954;48.844;9.726;2023-03-15T01:18:26;95714.19;;;-0.91;100.00
54038;BME280;39954;48.844;9.726;2023-03-15T01:19:28;95708.31;;;-0.94;100.00
54038;BME280;39954;48.844;9.726;2023-03-15T01:20:33;95717.59;;;-0.90;100.00
54038;BME280;39954;48.844;9.726;2023-03-15T01:21:35;95714.31;;;-0.95;100.00
54038;BME280;39954;48.844;9.726;2023-03-15T01:22:40;95712.59;;;-0.96;100.00
54038;BME280;39954;48.844;9.726;2023-03-15T01:23:42;95718.59;;;-0.97;100.00
54038;BME280;39954;48.844;9.726;2023-03-15T01:24:47;95716.94;;;-1.01;100.00
54038;BME280;39954;48.844;9.726;2023-03-15T01:25:49;95717.69;;;-0.96;100.00
54038;BME280;39954;48.844;9.726;2023-03-15T01:26:53;95721.97;;;-0.95;100.00
54038;BME280;39954;48.844;9.726;2023-03-15T01:27:55;95722.75;;;-0.93;100.00
54038;BME280;39954;48.844;9.726;2023-03-15T01:29:00;95716.03;;;-0.99;100.00
54038;BME280;39954;48.844;9.726;2023-03-15T01:30:02;95719.44;;;-0.98;100.00
54038;BME280;39954;48.844;9.726;2023-03-15T01:31:13;95716.16;;;-1.03;100.00
54038;BME280;39954;48.844;9.726;2023-03-15T01:32:20;95727.25;;;-1.07;100.00
54038;BME280;39954;48.844;9.726;2023-03-15T01:33:27;95717.06;;;-1.07;100.00
54038;BME280;39954;48.844;9.726;2023-03-15T01:34:30;95736.50;;;-1.00;100.00
54038;BME280;39954;48.844;9.726;2023-03-15T01:35:34;95728.78;;;-0.97;100.00
54038;BME280;39954;48.844;9.726;2023-03-15T01:36:36;95736.50;;;-1.02;100.00
54038;BME280;39954;48.844;9.726;2023-03-15T01:37:41;95733.94;;;-1.00;100.00
54038;BME280;39954;48.844;9.726;2023-03-15T01:38:43;95737.41;;;-1.04;100.00
54038;BME280;39954;48.844;9.726;2023-03-15T01:39:50;95735.75;;;-1.07;100.00
54038;BME280;39954;48.844;9.726;2023-03-15T01:40:52;95733.19;;;-1.07;100.00
54038;BME280;39954;48.844;9.726;2023-03-15T01:41:56;95739.16;;;-1.06;100.00
54038;BME280;39954;48.844;9.726;2023-03-15T01:43:14;95741.63;;;-1.02;100.00
54038;BME280;39954;48.844;9.726;2023-03-15T01:44:18;95744.19;;;-1.03;100.00
54038;BME280;39954;48.844;9.726;2023-03-15T01:47:05;95739.91;;;-1.01;100.00
54038;BME280;39954;48.844;9.726;2023-03-15T01:48:13;95747.59;;;-1.04;100.00
54038;BME280;39954;48.844;9.726;2023-03-15T01:49:18;95740.84;;;-1.07;100.00
54038;BME280;39954;48.844;9.726;2023-03-15T01:50:25;95739.16;;;-1.06;100.00
54038;BME280;39954;48.844;9.726;2023-03-15T01:51:32;95744.34;;;-1.13;100.00
54038;BME280;39954;48.844;9.726;2023-03-15T01:52:40;95745.97;;;-1.08;100.00
54038;BME280;39954;48.844;9.726;2023-03-15T01:53:49;95744.34;;;-1.13;100.00
54038;BME280;39954;48.844;9.726;2023-03-15T01:54:57;95750.38;;;-1.17;100.00
54038;BME280;39954;48.844;9.726;2023-03-15T01:56:04;95748.59;;;-1.13;100.00
54038;BME280;39954;48.844;9.726;2023-03-15T01:57:09;95747.78;;;-1.15;100.00
54038;BME280;39954;48.844;9.726;2023-03-15T01:58:16;95743.56;;;-1.18;100.00
54038;BME280;39954;48.844;9.726;2023-03-15T01:59:21;95756.31;;;-1.18;100.00
54038;BME280;39954;48.844;9.726;2023-03-15T02:00:27;95752.03;;;-1.16;100.00
54038;BME280;39954;48.844;9.726;2023-03-15T02:01:29;95755.47;;;-1.18;100.00
54038;BME280;39954;48.844;9.726;2023-03-15T02:02:34;95759.78;;;-1.22;100.00
54038;BME280;39954;48.844;9.726;2023-03-15T02:03:41;95762.28;;;-1.17;100.00
54038;BME280;39954;48.844;9.726;2023-03-15T02:04:50;95760.63;;;-1.20;100.00
54038;BME280;39954;48.844;9.726;2023-03-15T02:05:59;95757.25;;;-1.22;100.00
54038;BME280;39954;48.844;9.726;2023-03-15T02:07:04;95768.31;;;-1.23;100.00
54038;BME280;39954;48.844;9.726;2023-03-15T02:08:11;95765.78;;;-1.24;100.00
54038;BME280;39954;48.844;9.726;2023-03-15T02:09:17;95777.63;;;-1.20;100.00
54038;BME280;39954;48.844;9.726;2023-03-15T02:10:26;95778.38;;;-1.14;100.00
54038;BME280;39954;48.844;9.726;2023-03-15T02:11:32;95771.63;;;-1.18;100.00
54038;BME280;39954;48.844;9.726;2023-03-15T02:12:41;95775.09;;;-1.22;100.00
54038;BME280;39954;48.844;9.726;2023-03-15T02:13:47;95779.34;;;-1.22;100.00
54038;BME280;39954;48.844;9.726;2023-03-15T02:14:52;95781.88;;;-1.21;100.00
54038;BME280;39954;48.844;9.726;2023-03-15T02:15:55;95786.97;;;-1.21;100.00
54038;BME280;39954;48.844;9.726;2023-03-15T02:17:00;95783.53;;;-1.17;100.00
54038;BME280;39954;48.844;9.726;2023-03-15T02:18:03;95789.41;;;-1.13;100.00
54038;BME280;39954;48.844;9.726;2023-03-15T02:19:19;95785.97;;;-1.10;100.00
54038;BME280;39954;48.844;9.726;2023-03-15T02:20:32;95789.44;;;-1.15;100.00
54038;BME280;39954;48.844;9.726;2023-03-15T02:21:46;95791.06;;;-1.10;100.00
54038;BME280;39954;48.844;9.726;2023-03-15T02:22:53;95785.06;;;-1.06;100.00
54038;BME280;39954;48.844;9.726;2023-03-15T02:24:04;95790.13;;;-1.03;100.00
54038;BME280;39954;48.844;9.726;2023-03-15T02:25:15;95785.09;;;-1.09;100.00
54038;BME280;39954;48.844;9.726;2023-03-15T02:26:26;95785.19;;;-1.16;100.00
54038;BME280;39954;48.844;9.726;2023-03-15T02:27:34;95792.00;;;-1.15;100.00
54038;BME280;39954;48.844;9.726;2023-03-15T02:28:40;95795.34;;;-1.13;100.00
54038;BME280;39954;48.844;9.726;2023-03-15T02:29:43;95794.56;;;-1.16;100.00
54038;BME280;39954;48.844;9.726;2023-03-15T02:30:47;95800.38;;;-1.09;100.00
54038;BME280;39954;48.844;9.726;2023-03-15T02:31:50;95803.03;;;-1.16;100.00
54038;BME280;39954;48.844;9.726;2023-03-15T02:32:56;95804.75;;;-1.15;100.00
54038;BME280;39954;48.844;9.726;2023-03-15T02:33:58;95805.59;;;-1.16;100.00
54038;BME280;39954;48.844;9.726;2023-03-15T02:35:05;95801.41;;;-1.20;100.00
54038;BME280;39954;48.844;9.726;2023-03-15T02:36:14;95809.06;;;-1.20;100.00
54038;BME280;39954;48.844;9.726;2023-03-15T02:37:21;95811.56;;;-1.17;100.00
54038;BME280;39954;48.844;9.726;2023-03-15T02:38:23;95811.63;;;-1.20;100.00
54038;BME280;39954;48.844;9.726;2023-03-15T02:39:27;95803.91;;;-1.17;100.00
54038;BME280;39954;48.844;9.726;2023-03-15T02:40:30;95813.25;;;-1.16;100.00
54038;BME280;39954;48.844;9.726;2023-03-15T02:41:36;95817.44;;;-1.11;100.00
54038;BME280;39954;48.844;9.726;2023-03-15T02:42:43;95819.16;;;-1.14;100.00
54038;BME280;39954;48.844;9.726;2023-03-15T02:43:52;95818.34;;;-1.16;100.00
54038;BME280;39954;48.844;9.726;2023-03-15T02:44:56;95821.66;;;-1.09;100.00
54038;BME280;39954;48.844;9.726;2023-03-15T02:46:02;95822.63;;;-1.18;100.00
54038;BME280;39954;48.844;9.726;2023-03-15T02:47:06;95820.09;;;-1.19;100.00
54038;BME280;39954;48.844;9.726;2023-03-15T02:48:14;95826.00;;;-1.16;100.00
54038;BME280;39954;48.844;9.726;2023-03-15T02:49:17;95821.72;;;-1.12;100.00
54038;BME280;39954;48.844;9.726;2023-03-15T02:50:24;95822.53;;;-1.11;100.00
54038;BME280;39954;48.844;9.726;2023-03-15T02:51:28;95824.38;;;-1.20;100.00
54038;BME280;39954;48.844;9.726;2023-03-15T02:52:33;95819.22;;;-1.17;100.00
54038;BME280;39954;48.844;9.726;2023-03-15T02:53:35;95828.59;;;-1.17;100.00
54038;BME280;39954;48.844;9.726;2023-03-15T02:54:40;95834.47;;;-1.14;100.00
54038;BME280;39954;48.844;9.726;2023-03-15T02:55:44;95831.94;;;-1.15;100.00
54038;BME280;39954;48.844;9.726;2023-03-15T02:56:48;95833.63;;;-1.14;100.00
54038;BME280;39954;48.844;9.726;2023-03-15T02:57:53;95831.16;;;-1.19;100.00
54038;BME280;39954;48.844;9.726;2023-03-15T02:58:58;95831.91;;;-1.12;100.00
54038;BME280;39954;48.844;9.726;2023-03-15T03:00:00;95835.34;;;-1.16;100.00
54038;BME280;39954;48.844;9.726;2023-03-15T03:01:16;95833.66;;;-1.16;100.00
54038;BME280;39954;48.844;9.726;2023-03-15T03:02:21;95837.03;;;-1.14;100.00
54038;BME280;39954;48.844;9.726;2023-03-15T03:03:24;95838.75;;;-1.16;100.00
54038;BME280;39954;48.844;9.726;2023-03-15T03:04:29;95839.47;;;-1.07;100.00
54038;BME280;39954;48.844;9.726;2023-03-15T03:05:31;95834.47;;;-1.12;100.00
54038;BME280;39954;48.844;9.726;2023-03-15T03:06:35;95831.00;;;-1.09;100.00
54038;BME280;39954;48.844;9.726;2023-03-15T03:07:38;95838.63;;;-1.08;100.00
54038;BME280;39954;48.844;9.726;2023-03-15T03:08:43;95836.09;;;-1.09;100.00
54038;BME280;39954;48.844;9.726;2023-03-15T03:09:47;95842.91;;;-1.08;100.00
54038;BME280;39954;48.844;9.726;2023-03-15T03:10:52;95848.78;;;-1.05;100.00
54038;BME280;39954;48.844;9.726;2023-03-15T03:11:54;95847.06;;;-1.04;100.00
54038;BME280;39954;48.844;9.726;2023-03-15T03:13:01;95842.84;;;-1.05;100.00
54038;BME280;39954;48.844;9.726;2023-03-15T03:14:04;95850.41;;;-0.99;100.00
54038;BME280;39954;48.844;9.726;2023-03-15T03:15:10;95848.84;;;-1.09;100.00
54038;BME280;39954;48.844;9.726;2023-03-15T03:16:12;95850.56;;;-1.08;100.00
54038;BME280;39954;48.844;9.726;2023-03-15T03:17:16;95862.31;;;-1.00;100.00
54038;BME280;39954;48.844;9.726;2023-03-15T03:18:19;95863.25;;;-1.07;100.00
54038;BME280;39954;48.844;9.726;2023-03-15T03:19:24;95867.56;;;-1.09;100.00
54038;BME280;39954;48.844;9.726;2023-03-15T03:20:26;95868.31;;;-1.01;100.00
54038;BME280;39954;48.844;9.726;2023-03-15T03:21:31;95864.03;;;-1.02;100.00
54038;BME280;39954;48.844;9.726;2023-03-15T03:22:33;95874.19;;;-0.99;100.00
54038;BME280;39954;48.844;9.726;2023-03-15T03:23:38;95874.34;;;-1.06;100.00
54038;BME280;39954;48.844;9.726;2023-03-15T03:24:40;95882.00;;;-1.06;100.00
54038;BME280;39954;48.844;9.726;2023-03-15T03:25:46;95881.94;;;-1.03;100.00
54038;BME280;39954;48.844;9.726;2023-03-15T03:26:48;95888.66;;;-0.99;100.00
54038;BME280;39954;48.844;9.726;2023-03-15T03:28:01;95893.03;;;-1.07;100.00
54038;BME280;39954;48.844;9.726;2023-03-15T03:29:04;95895.69;;;-1.14;100.00
54038;BME280;39954;48.844;9.726;2023-03-15T03:30:12;95897.44;;;-1.17;100.00
54038;BME280;39954;48.844;9.726;2023-03-15T03:31:16;95898.25;;;-1.15;100.00
54038;BME280;39954;48.844;9.726;2023-03-15T03:32:21;95902.50;;;-1.16;100.00
54038;BME280;39954;48.844;9.726;2023-03-15T03:33:23;95908.44;;;-1.14;100.00
54038;BME280;39954;48.844;9.726;2023-03-15T03:34:28;95904.13;;;-1.08;100.00
54038;BME280;39954;48.844;9.726;2023-03-15T03:35:30;95911.81;;;-1.13;100.00
54038;BME280;39954;48.844;9.726;2023-03-15T03:36:35;95923.72;;;-1.12;100.00
54038;BME280;39954;48.844;9.726;2023-03-15T03:37:37;95922.91;;;-1.16;100.00
54038;BME280;39954;48.844;9.726;2023-03-15T03:38:44;95917.88;;;-1.22;100.00
54038;BME280;39954;48.844;9.726;2023-03-15T03:39:46;95919.56;;;-1.21;100.00
54038;BME280;39954;48.844;9.726;2023-03-15T03:40:51;95925.50;;;-1.17;100.00
54038;BME280;39954;48.844;9.726;2023-03-15T03:41:53;95916.09;;;-1.15;100.00
54038;BME280;39954;48.844;9.726;2023-03-15T03:43:00;95920.38;;;-1.17;100.00
54038;BME280;39954;48.844;9.726;2023-03-15T03:44:02;95930.56;;;-1.16;100.00
54038;BME280;39954;48.844;9.726;2023-03-15T03:45:08;95928.03;;;-1.19;100.00
54038;BME280;39954;48.844;9.726;2023-03-15T03:46:10;95925.50;;;-1.17;100.00
54038;BME280;39954;48.844;9.726;2023-03-15T03:47:15;95932.31;;;-1.21;100.00
54038;BME280;39954;48.844;9.726;2023-03-15T03:48:17;95929.75;;;-1.21;100.00
54038;BME280;39954;48.844;9.726;2023-03-15T03:49:22;95938.25;;;-1.19;100.00
54038;BME280;39954;48.844;9.726;2023-03-15T03:50:24;95938.28;;;-1.22;100.00
54038;BME280;39954;48.844;9.726;2023-03-15T03:51:29;95933.19;;;-1.22;100.00
54038;BME280;39954;48.844;9.726;2023-03-15T03:52:31;95933.97;;;-1.18;100.00
54038;BME280;39954;48.844;9.726;2023-03-15T03:53:36;95934.84;;;-1.19;100.00
54038;BME280;39954;48.844;9.726;2023-03-15T03:54:38;95938.28;;;-1.22;100.00
54038;BME280;39954;48.844;9.726;2023-03-15T03:55:43;95931.44;;;-1.17;100.00
54038;BME280;39954;48.844;9.726;2023-03-15T03:56:46;95940.84;;;-1.20;100.00
54038;BME280;39954;48.844;9.726;2023-03-15T03:57:51;95943.38;;;-1.22;100.00
54038;BME280;39954;48.844;9.726;2023-03-15T03:58:56;95945.94;;;-1.23;100.00
54038;BME280;39954;48.844;9.726;2023-03-15T04:00:01;95945.06;;;-1.21;100.00
54038;BME280;39954;48.844;9.726;2023-03-15T04:01:03;95952.66;;;-1.16;100.00
54038;BME280;39954;48.844;9.726;2023-03-15T04:02:08;95951.84;;;-1.17;100.00
54038;BME280;39954;48.844;9.726;2023-03-15T04:03:10;95955.22;;;-1.18;100.00
54038;BME280;39954;48.844;9.726;2023-03-15T04:04:15;95953.56;;;-1.19;100.00
54038;BME280;39954;48.844;9.726;2023-03-15T04:05:17;95959.44;;;-1.15;100.00
54038;BME280;39954;48.844;9.726;2023-03-15T04:06:22;95966.28;;;-1.17;100.00
54038;BME280;39954;48.844;9.726;2023-03-15T04:07:24;95959.44;;;-1.15;100.00
54038;BME280;39954;48.844;9.726;2023-03-15T04:08:28;95973.94;;;-1.19;100.00
54038;BME280;39954;48.844;9.726;2023-03-15T04:09:30;95968.84;;;-1.19;100.00
54038;BME280;39954;48.844;9.726;2023-03-15T04:10:38;95975.63;;;-1.15;100.00
54038;BME280;39954;48.844;9.726;2023-03-15T04:11:41;95974.78;;;-1.18;100.00
54038;BME280;39954;48.844;9.726;2023-03-15T04:12:46;95981.50;;;-1.11;100.00
54038;BME280;39954;48.844;9.726;2023-03-15T04:13:48;95973.88;;;-1.13;100.00
54038;BME280;39954;48.844;9.726;2023-03-15T04:14:55;95977.25;;;-1.10;100.00
54038;BME280;39954;48.844;9.726;2023-03-15T04:16:00;95978.91;;;-1.09;100.00
54038;BME280;39954;48.844;9.726;2023-03-15T04:17:04;95982.44;;;-1.17;100.00
54038;BME280;39954;48.844;9.726;2023-03-15T04:18:09;95989.16;;;-1.13;100.00
54038;BME280;39954;48.844;9.726;2023-03-15T04:19:11;95986.66;;;-1.14;100.00
54038;BME280;39954;48.844;9.726;2023-03-15T04:20:16;95986.69;;;-1.17;100.00
54038;BME280;39954;48.844;9.726;2023-03-15T04:21:18;95983.31;;;-1.19;100.00
54038;BME280;39954;48.844;9.726;2023-03-15T04:22:24;95989.25;;;-1.19;100.00
54038;BME280;39954;48.844;9.726;2023-03-15T04:23:26;95994.38;;;-1.22;100.00
54038;BME280;39954;48.844;9.726;2023-03-15T04:24:31;95991.03;;;-1.27;100.00
54038;BME280;39954;48.844;9.726;2023-03-15T04:25:33;95993.50;;;-1.21;100.00
54038;BME280;39954;48.844;9.726;2023-03-15T04:26:37;95993.56;;;-1.24;100.00
54038;BME280;39954;48.844;9.726;2023-03-15T04:27:39;95996.03;;;-1.18;100.00
54038;BME280;39954;48.844;9.726;2023-03-15T04:28:44;95996.06;;;-1.21;100.00
54038;BME280;39954;48.844;9.726;2023-03-15T04:29:46;95993.56;;;-1.22;100.00
54038;BME280;39954;48.844;9.726;2023-03-15T04:30:53;96000.44;;;-1.30;100.00
54038;BME280;39954;48.844;9.726;2023-03-15T04:32:02;95998.78;;;-1.33;100.00
54038;BME280;39954;48.844;9.726;2023-03-15T04:33:07;96001.25;;;-1.27;100.00
54038;BME280;39954;48.844;9.726;2023-03-15T04:34:09;95995.25;;;-1.23;100.00
54038;BME280;39954;48.844;9.726;2023-03-15T04:35:14;96002.94;;;-1.26;100.00
54038;BME280;39954;48.844;9.726;2023-03-15T04:36:16;95998.72;;;-1.28;100.00
54038;BME280;39954;48.844;9.726;2023-03-15T04:37:21;96006.31;;;-1.24;100.00
54038;BME280;39954;48.844;9.726;2023-03-15T04:38:23;96002.13;;;-1.29;100.00
54038;BME280;39954;48.844;9.726;2023-03-15T04:39:28;96000.41;;;-1.27;100.00
54038;BME280;39954;48.844;9.726;2023-03-15T04:40:31;95998.75;;;-1.30;100.00
54038;BME280;39954;48.844;9.726;2023-03-15T04:41:36;96003.88;;;-1.31;100.00
54038;BME280;39954;48.844;9.726;2023-03-15T04:42:40;96010.66;;;-1.32;100.00
54038;BME280;39954;48.844;9.726;2023-03-15T04:43:45;96012.38;;;-1.32;100.00
54038;BME280;39954;48.844;9.726;2023-03-15T04:44:47;96010.59;;;-1.29;100.00
54038;BME280;39954;48.844;9.726;2023-03-15T04:45:54;96013.97;;;-1.24;100.00
54038;BME280;39954;48.844;9.726;2023-03-15T04:46:56;96019.13;;;-1.30;100.00
54038;BME280;39954;48.844;9.726;2023-03-15T04:48:02;96011.44;;;-1.27;100.00
54038;BME280;39954;48.844;9.726;2023-03-15T04:49:04;96013.97;;;-1.24;100.00
54038;BME280;39954;48.844;9.726;2023-03-15T04:50:10;96009.81;;;-1.31;100.00
54038;BME280;39954;48.844;9.726;2023-03-15T04:51:12;96016.53;;;-1.27;100.00
54038;BME280;39954;48.844;9.726;2023-03-15T04:52:16;96015.72;;;-1.29;100.00
54038;BME280;39954;48.844;9.726;2023-03-15T04:53:18;96019.09;;;-1.27;100.00
54038;BME280;39954;48.844;9.726;2023-03-15T04:54:23;96019.97;;;-1.28;100.00
54038;BME280;39954;48.844;9.726;2023-03-15T04:55:25;96021.66;;;-1.27;100.00
54038;BME280;39954;48.844;9.726;2023-03-15T04:56:30;96024.19;;;-1.27;100.00
54038;BME280;39954;48.844;9.726;2023-03-15T04:57:32;96030.13;;;-1.25;100.00
54038;BME280;39954;48.844;9.726;2023-03-15T04:58:37;96025.06;;;-1.28;100.00
54038;BME280;39954;48.844;9.726;2023-03-15T04:59:39;96025.00;;;-1.22;100.00
54038;BME280;39954;48.844;9.726;2023-03-15T05:00:43;96026.72;;;-1.24;100.00
54038;BME280;39954;48.844;9.726;2023-03-15T05:01:48;96031.81;;;-1.24;100.00
54038;BME280;39954;48.844;9.726;2023-03-15T05:02:53;96031.88;;;-1.30;100.00
54038;BME280;39954;48.844;9.726;2023-03-15T05:03:56;96023.44;;;-1.35;100.00
54038;BME280;39954;48.844;9.726;2023-03-15T05:05:00;96021.75;;;-1.38;100.00
54038;BME280;39954;48.844;9.726;2023-03-15T05:06:03;96019.16;;;-1.33;100.00
54038;BME280;39954;48.844;9.726;2023-03-15T05:07:09;96016.66;;;-1.36;100.00
54038;BME280;39954;48.844;9.726;2023-03-15T05:08:11;96020.91;;;-1.37;100.00
54038;BME280;39954;48.844;9.726;2023-03-15T05:09:15;96018.38;;;-1.38;100.00
54038;BME280;39954;48.844;9.726;2023-03-15T05:10:20;96019.22;;;-1.38;100.00
54038;BME280;39954;48.844;9.726;2023-03-15T05:11:24;96020.09;;;-1.37;100.00
54038;BME280;39954;48.844;9.726;2023-03-15T05:12:27;96020.97;;;-1.40;100.00
54038;BME280;39954;48.844;9.726;2023-03-15T05:13:31;96021.00;;;-1.44;100.00
54038;BME280;39954;48.844;9.726;2023-03-15T05:14:33;96017.56;;;-1.43;100.00
54038;BME280;39954;48.844;9.726;2023-03-15T05:15:38;96020.97;;;-1.41;100.00
54038;BME280;39954;48.844;9.726;2023-03-15T05:16:40;96018.53;;;-1.50;100.00
54038;BME280;39954;48.844;9.726;2023-03-15T05:17:47;96014.31;;;-1.54;100.00
54038;BME280;39954;48.844;9.726;2023-03-15T05:18:49;96018.63;;;-1.60;100.00
54038;BME280;39954;48.844;9.726;2023-03-15T05:19:54;96017.75;;;-1.60;100.00
54038;BME280;39954;48.844;9.726;2023-03-15T05:20:56;96032.22;;;-1.61;100.00
54038;BME280;39954;48.844;9.726;2023-03-15T05:22:01;96021.25;;;-1.69;100.00
54038;BME280;39954;48.844;9.726;2023-03-15T05:23:04;96025.56;;;-1.77;100.00
54038;BME280;39954;48.844;9.726;2023-03-15T05:24:09;96020.50;;;-1.80;100.00
54038;BME280;39954;48.844;9.726;2023-03-15T05:25:11;96025.63;;;-1.83;100.00
54038;BME280;39954;48.844;9.726;2023-03-15T05:26:16;96020.56;;;-1.88;100.00
54038;BME280;39954;48.844;9.726;2023-03-15T05:27:18;96023.19;;;-1.94;100.00
54038;BME280;39954;48.844;9.726;2023-03-15T05:28:24;96019.03;;;-2.01;100.00
54038;BME280;39954;48.844;9.726;2023-03-15T05:29:26;96022.34;;;-1.94;100.00
54038;BME280;39954;48.844;9.726;2023-03-15T05:30:31;96019.00;;;-1.99;100.00
54038;BME280;39954;48.844;9.726;2023-03-15T05:31:33;96025.81;;;-2.05;100.00
54038;BME280;39954;48.844;9.726;2023-03-15T05:32:38;96024.19;;;-2.12;100.00
54038;BME280;39954;48.844;9.726;2023-03-15T05:33:43;96022.53;;;-2.16;100.00
54038;BME280;39954;48.844;9.726;2023-03-15T05:34:48;96025.91;;;-2.12;100.00
54038;BME280;39954;48.844;9.726;2023-03-15T05:35:50;96031.06;;;-2.18;100.00
54038;BME280;39954;48.844;9.726;2023-03-15T05:36:57;96031.94;;;-2.26;100.00
54038;BME280;39954;48.844;9.726;2023-03-15T05:37:59;96028.50;;;-2.18;100.00
54038;BME280;39954;48.844;9.726;2023-03-15T05:39:04;96028.53;;;-2.23;100.00